This is the latest recevied weather packets stored in our database for station/object KC9DK. If no packets are shown the sender has not sent any weather packets the latest 10 day(s).
| Time | Temp. | Humidity | Pressure | Rain* | Wind** | Luminosity | Snow |
|---|---|---|---|---|---|---|---|
| 1778375338 | 20° C | 60% | 1010.6 hPa | 0 mm | - | 0 W/m² | - |
| 1778375036 | 20° C | 60% | 1010.8 hPa | 0 mm | - | 0 W/m² | - |
| 1778374732 | 20.56° C | 59% | 1010.6 hPa | 0 mm | - | 1 W/m² | - |
| 1778374429 | 20.56° C | 57% | 1010.3 hPa | 0 mm | - | 1 W/m² | - |
| 1778374126 | 21.11° C | 57% | 1010.4 hPa | 0 mm | - | 2 W/m² | - |
| 1778373824 | 21.11° C | 56% | 1010.2 hPa | 0 mm | - | 4 W/m² | - |
| 1778373522 | 21.11° C | 55% | 1010.4 hPa | 0 mm | - | 6 W/m² | - |
| 1778373218 | 21.67° C | 55% | 1010.1 hPa | 0 mm | - | 8 W/m² | - |
| 1778372916 | 22.22° C | 55% | 1009.9 hPa | 0 mm | - | 10 W/m² | - |
| 1778372614 | 22.78° C | 53% | 1010 hPa | 0 mm | - | 12 W/m² | - |
| 1778372311 | 22.78° C | 53% | 1010.2 hPa | 0 mm | - | 14 W/m² | - |
| 1778372009 | 23.33° C | 52% | 1010 hPa | 0 mm | - | 16 W/m² | - |
| 1778371705 | 23.33° C | 49% | 1010.1 hPa | 0 mm | - | 18 W/m² | - |
| 1778371402 | 23.89° C | 46% | 1010 hPa | 0 mm | - | 19 W/m² | - |
| 1778371099 | 23.89° C | 45% | 1009.9 hPa | 0 mm | - | 22 W/m² | - |
| 1778370796 | 23.89° C | 46% | 1010.1 hPa | 0 mm | - | 22 W/m² | - |
| 1778370491 | 24.44° C | 44% | 1009.9 hPa | 0 mm | - | 24 W/m² | - |
| 1778370188 | 24.44° C | 45% | 1010.2 hPa | 0 mm | - | 37 W/m² | - |
| 1778369887 | 25° C | 43% | 1009.9 hPa | 0 mm | - | 52 W/m² | - |
| 1778369584 | 25° C | 44% | 1009.9 hPa | 0 mm | - | 34 W/m² | - |
| 1778369279 | 24.44° C | 43% | 1009.8 hPa | 0 mm | - | 75 W/m² | - |
| 1778368977 | 24.44° C | 42% | 1010 hPa | 0 mm | - | 35 W/m² | - |
| 1778368673 | 24.44° C | 44% | 1010.2 hPa | 0 mm | - | 30 W/m² | - |
| 1778368370 | 24.44° C | 41% | 1009.8 hPa | 0 mm | - | 33 W/m² | - |
| 1778368068 | 24.44° C | 42% | 1009.9 hPa | 0 mm | - | 34 W/m² | - |
* Rain latest hour (hover to see other rain measurements)
** Current wind speed in m/s (hover to see current wind gust speed)